createdAt,value
2022-09-30T00:01:01.087Z,20.80
2022-09-30T00:03:49.425Z,19.23
2022-09-30T00:06:36.493Z,20.67
2022-09-30T00:09:23.705Z,20.17
2022-09-30T00:12:10.914Z,24.03
2022-09-30T00:14:57.950Z,19.13
2022-09-30T00:17:44.897Z,19.37
2022-09-30T00:20:31.850Z,19.43
2022-09-30T00:23:20.087Z,22.10
2022-09-30T00:26:12.169Z,18.20
2022-09-30T00:29:00.370Z,22.03
2022-09-30T00:31:47.426Z,20.40
2022-09-30T00:34:34.622Z,19.43
2022-09-30T00:37:21.626Z,20.60
2022-09-30T00:40:11.805Z,20.13
2022-09-30T00:43:00.584Z,25.50
2022-09-30T00:45:58.781Z,19.87
2022-09-30T00:48:51.026Z,21.20
2022-09-30T00:51:43.863Z,20.77
2022-09-30T00:54:32.018Z,23.70
2022-09-30T00:57:19.243Z,22.57
2022-09-30T01:00:06.937Z,24.23
2022-09-30T01:02:54.475Z,21.97
2022-09-30T01:05:41.945Z,23.67
2022-09-30T01:08:32.503Z,28.03
2022-09-30T01:11:19.486Z,22.43
2022-09-30T01:14:22.121Z,24.90
2022-09-30T01:17:28.356Z,29.20
2022-09-30T01:20:37.062Z,27.83
2022-09-30T01:23:36.022Z,28.73
2022-09-30T01:26:38.145Z,31.07
2022-09-30T01:29:41.863Z,29.67
2022-09-30T01:32:40.605Z,31.70
2022-09-30T01:35:36.641Z,33.33
2022-09-30T01:38:30.766Z,31.93
2022-09-30T01:41:42.467Z,33.13
2022-09-30T01:44:34.592Z,34.87
2022-09-30T01:47:27.579Z,34.07
2022-09-30T01:50:20.898Z,36.10
2022-09-30T01:53:16.231Z,32.67
2022-09-30T01:56:12.530Z,36.77
2022-09-30T01:59:16.394Z,32.80
2022-09-30T02:02:19.664Z,35.20
2022-09-30T02:05:10.218Z,35.97
2022-09-30T02:08:04.054Z,31.23
2022-09-30T02:10:58.690Z,34.13
2022-09-30T02:14:07.311Z,35.47
2022-09-30T02:17:04.249Z,34.27
2022-09-30T02:19:59.244Z,34.57
2022-09-30T02:22:52.609Z,31.43
2022-09-30T02:25:45.492Z,32.43
2022-09-30T02:28:34.722Z,32.80
2022-09-30T02:31:24.415Z,31.67
2022-09-30T02:34:29.634Z,32.27
2022-09-30T02:37:32.413Z,30.80
2022-09-30T02:40:19.336Z,32.10
2022-09-30T02:43:07.954Z,32.60
2022-09-30T02:46:19.347Z,30.03
2022-09-30T02:49:28.063Z,28.33
2022-09-30T02:52:16.185Z,30.90
2022-09-30T02:55:19.663Z,29.83
2022-09-30T02:58:16.402Z,29.90
2022-09-30T03:01:03.639Z,31.93
2022-09-30T03:03:58.411Z,35.53
2022-09-30T03:06:45.414Z,32.60
2022-09-30T03:09:34.901Z,32.93
2022-09-30T03:12:55.792Z,36.07
2022-09-30T03:16:09.819Z,31.93
2022-09-30T03:19:15.383Z,30.43
2022-09-30T03:22:19.265Z,34.57
2022-09-30T03:25:12.286Z,28.97
2022-09-30T03:28:05.186Z,30.77
2022-09-30T03:31:38.474Z,30.17
2022-09-30T03:34:34.341Z,34.20
2022-09-30T03:37:46.777Z,31.63
2022-09-30T03:40:58.494Z,36.53
2022-09-30T03:43:55.619Z,31.20
2022-09-30T03:46:52.011Z,32.97
2022-09-30T03:49:52.986Z,29.73
2022-09-30T03:52:40.164Z,32.47
2022-09-30T03:55:28.043Z,30.53
2022-09-30T03:58:16.665Z,32.43
2022-09-30T04:01:03.703Z,33.43
2022-09-30T04:03:54.775Z,37.60
2022-09-30T04:06:41.839Z,35.63
2022-09-30T04:09:28.793Z,33.50
2022-09-30T04:12:15.850Z,34.77
2022-09-30T04:15:02.918Z,41.87
2022-09-30T04:17:49.850Z,40.93
2022-09-30T04:20:38.569Z,43.33
2022-09-30T04:23:25.831Z,36.93
2022-09-30T04:26:15.003Z,35.90
2022-09-30T04:29:01.975Z,34.97
2022-09-30T04:31:48.942Z,31.73
2022-09-30T04:34:35.919Z,35.33
2022-09-30T04:37:24.563Z,35.33
2022-09-30T04:40:12.840Z,33.73
2022-09-30T04:42:59.762Z,36.93
2022-09-30T04:45:46.956Z,38.53
2022-09-30T04:48:33.958Z,35.27
2022-09-30T04:51:21.920Z,32.63
2022-09-30T04:54:08.874Z,32.13
2022-09-30T04:56:55.871Z,38.03
2022-09-30T04:59:44.220Z,37.57
2022-09-30T05:02:32.009Z,37.17
2022-09-30T05:05:19.356Z,34.73
2022-09-30T05:08:06.498Z,34.37
2022-09-30T05:10:57.964Z,38.07
2022-09-30T05:13:45.824Z,34.67
2022-09-30T05:16:32.975Z,39.37
2022-09-30T05:19:19.978Z,37.87
2022-09-30T05:22:06.925Z,39.17
2022-09-30T05:24:56.194Z,42.10
2022-09-30T05:27:43.095Z,35.37
2022-09-30T05:30:30.054Z,36.40
2022-09-30T05:33:17.274Z,37.90
2022-09-30T05:36:07.650Z,37.03
2022-09-30T05:38:55.095Z,34.47
2022-09-30T05:41:42.086Z,37.73
2022-09-30T05:44:29.081Z,36.73
2022-09-30T05:47:16.173Z,34.20
2022-09-30T05:50:03.316Z,38.40
2022-09-30T05:52:50.380Z,37.70
2022-09-30T05:55:39.312Z,36.70
2022-09-30T05:58:27.520Z,35.50
2022-09-30T06:01:16.034Z,35.47
2022-09-30T06:04:03.260Z,35.13
2022-09-30T06:06:50.276Z,38.93
2022-09-30T06:09:37.363Z,37.67
2022-09-30T06:12:26.343Z,35.13
2022-09-30T06:15:13.297Z,33.50
2022-09-30T06:18:00.257Z,32.73
2022-09-30T06:20:47.103Z,32.10
2022-09-30T06:23:35.302Z,30.20
2022-09-30T06:26:22.284Z,33.93
2022-09-30T06:29:09.705Z,30.83
2022-09-30T06:31:56.946Z,32.20
2022-09-30T06:34:44.999Z,34.90
2022-09-30T06:37:31.923Z,31.43
2022-09-30T06:40:21.438Z,29.73
2022-09-30T06:43:08.455Z,29.53
2022-09-30T06:46:07.061Z,28.17
2022-09-30T06:49:10.163Z,27.00
2022-09-30T06:52:00.606Z,27.63
2022-09-30T06:54:49.475Z,27.00
2022-09-30T06:57:36.571Z,27.00
2022-09-30T07:00:25.005Z,28.70
2022-09-30T07:03:24.630Z,24.23
2022-09-30T07:06:13.405Z,24.47
2022-09-30T07:09:00.430Z,24.20
2022-09-30T07:11:49.099Z,19.93
2022-09-30T07:14:37.126Z,21.43
2022-09-30T07:17:24.050Z,20.13
2022-09-30T07:20:10.945Z,20.13
2022-09-30T07:22:59.007Z,19.60
2022-09-30T07:26:01.177Z,19.87
2022-09-30T07:28:49.257Z,22.87
2022-09-30T07:31:36.584Z,18.47
2022-09-30T07:34:24.238Z,20.37
2022-09-30T07:37:14.198Z,22.00
2022-09-30T07:40:01.672Z,15.60
2022-09-30T07:42:48.576Z,18.73
2022-09-30T07:45:37.308Z,17.77
2022-09-30T07:48:56.581Z,14.97
2022-09-30T07:51:46.655Z,18.37
2022-09-30T07:54:38.731Z,16.33
2022-09-30T07:57:28.269Z,18.00
2022-09-30T08:00:37.814Z,14.93
2022-09-30T08:03:22.177Z,16.23
2022-09-30T08:06:16.270Z,17.30
2022-09-30T08:09:03.873Z,16.00
2022-09-30T08:11:51.774Z,17.93
2022-09-30T08:14:39.157Z,18.97
2022-09-30T08:17:26.089Z,17.07
2022-09-30T08:20:15.698Z,16.80
2022-09-30T08:23:04.791Z,15.83
2022-09-30T08:25:51.740Z,15.43
2022-09-30T08:28:40.250Z,17.00
2022-09-30T08:31:28.194Z,16.03
2022-09-30T08:34:15.535Z,15.63
2022-09-30T08:37:08.391Z,14.57
2022-09-30T08:39:55.970Z,17.23
2022-09-30T08:42:57.539Z,15.60
2022-09-30T08:46:14.829Z,16.70
2022-09-30T08:49:20.248Z,15.57
2022-09-30T08:52:24.541Z,14.23
2022-09-30T08:55:26.273Z,14.00
2022-09-30T08:58:27.853Z,13.70
2022-09-30T09:01:27.384Z,15.40
2022-09-30T09:04:15.146Z,15.67
2022-09-30T09:07:10.511Z,14.00
2022-09-30T09:10:10.371Z,13.87
2022-09-30T09:13:18.723Z,16.07
2022-09-30T09:16:15.150Z,14.67
2022-09-30T09:19:15.430Z,15.87
2022-09-30T09:22:03.031Z,13.23
2022-09-30T09:24:51.768Z,12.40
2022-09-30T09:27:48.253Z,12.97
2022-09-30T09:30:44.924Z,14.30
2022-09-30T09:33:42.323Z,15.33
2022-09-30T09:36:38.069Z,13.33
2022-09-30T09:39:55.612Z,13.80
2022-09-30T09:43:19.266Z,14.20
2022-09-30T09:46:18.139Z,15.53
2022-09-30T09:49:14.131Z,13.73
2022-09-30T09:52:13.275Z,13.70
2022-09-30T09:55:00.943Z,11.97
2022-09-30T09:57:47.934Z,14.23
2022-09-30T10:00:47.020Z,13.37
2022-09-30T10:03:35.279Z,14.00
2022-09-30T10:06:22.279Z,12.93
2022-09-30T10:09:23.382Z,14.13
2022-09-30T10:12:13.500Z,13.07
2022-09-30T10:15:03.595Z,14.47
2022-09-30T10:17:53.410Z,12.30
2022-09-30T10:20:49.701Z,12.70
2022-09-30T10:23:41.133Z,14.60
2022-09-30T10:26:29.274Z,12.97
2022-09-30T10:29:34.080Z,15.53
2022-09-30T10:32:22.515Z,13.07
2022-09-30T10:35:23.571Z,15.37
2022-09-30T10:38:14.475Z,12.33
2022-09-30T10:41:03.066Z,12.83
2022-09-30T10:43:53.314Z,12.77
2022-09-30T10:46:42.088Z,13.87
2022-09-30T10:49:38.166Z,13.70
2022-09-30T10:52:31.348Z,15.07
2022-09-30T10:55:21.964Z,12.43
2022-09-30T10:58:27.579Z,14.37
2022-09-30T11:01:41.030Z,12.10
2022-09-30T11:04:39.432Z,12.70
2022-09-30T11:07:47.459Z,11.40
2022-09-30T11:10:47.294Z,10.77
2022-09-30T11:13:51.839Z,12.73
2022-09-30T11:16:41.587Z,10.23
2022-09-30T11:19:50.910Z,11.33
2022-09-30T11:23:03.178Z,12.57
2022-09-30T11:25:57.508Z,12.70
2022-09-30T11:29:06.403Z,11.53
2022-09-30T11:32:16.225Z,9.80
2022-09-30T11:35:24.531Z,7.27
2022-09-30T11:38:17.418Z,7.17
2022-09-30T11:41:17.737Z,10.67
2022-09-30T11:44:28.503Z,13.33
2022-09-30T11:47:25.234Z,8.23
2022-09-30T11:50:30.685Z,9.70
2022-09-30T11:53:29.498Z,8.40
2022-09-30T11:56:32.977Z,8.87
2022-09-30T11:59:29.298Z,11.00
2022-09-30T12:02:37.530Z,8.83
2022-09-30T12:05:35.495Z,9.67
2022-09-30T12:08:29.477Z,8.33
2022-09-30T12:11:23.346Z,10.17
2022-09-30T12:14:21.729Z,9.30
2022-09-30T12:17:37.747Z,11.03
2022-09-30T12:20:30.980Z,9.07
2022-09-30T12:23:32.913Z,9.33
2022-09-30T12:26:19.991Z,8.87
2022-09-30T12:29:41.614Z,9.30
2022-09-30T12:33:00.978Z,10.13
2022-09-30T12:36:03.655Z,7.00
2022-09-30T12:39:16.742Z,6.93
2022-09-30T12:42:36.947Z,7.83
2022-09-30T12:45:42.696Z,8.10
2022-09-30T12:48:44.229Z,7.60
2022-09-30T12:51:34.271Z,6.80
2022-09-30T12:54:26.862Z,7.63
2022-09-30T12:57:21.267Z,8.00
2022-09-30T13:00:30.946Z,6.43
2022-09-30T13:03:18.733Z,8.30
2022-09-30T13:06:06.647Z,7.83
2022-09-30T13:09:11.999Z,11.77
2022-09-30T13:11:58.857Z,6.93
2022-09-30T13:14:45.839Z,8.00
2022-09-30T13:17:35.102Z,7.40
2022-09-30T13:20:59.033Z,6.47
2022-09-30T13:23:53.502Z,6.97
2022-09-30T13:26:45.335Z,8.43
2022-09-30T13:29:35.393Z,6.50
2022-09-30T13:32:39.974Z,8.07
2022-09-30T13:35:48.864Z,7.57
2022-09-30T13:38:40.229Z,6.33
2022-09-30T13:41:27.480Z,5.97
2022-09-30T13:44:19.995Z,10.07
2022-09-30T13:47:25.778Z,8.13
2022-09-30T13:50:16.146Z,5.73
2022-09-30T13:53:08.089Z,7.73
2022-09-30T13:55:56.806Z,8.20
2022-09-30T13:59:20.186Z,7.07
2022-09-30T14:02:29.326Z,7.60
2022-09-30T14:05:22.796Z,6.20
2022-09-30T14:08:44.175Z,6.03
2022-09-30T14:11:52.997Z,6.87
2022-09-30T14:15:07.281Z,6.43
2022-09-30T14:18:19.710Z,6.17
2022-09-30T14:21:27.162Z,6.27
2022-09-30T14:24:17.687Z,4.50
2022-09-30T14:27:21.759Z,3.80
2022-09-30T14:30:17.670Z,5.57
2022-09-30T14:33:25.752Z,7.10
2022-09-30T14:36:22.173Z,5.80
2022-09-30T14:39:31.354Z,5.50
2022-09-30T14:42:29.811Z,8.00
2022-09-30T14:45:23.637Z,7.67
2022-09-30T14:48:17.357Z,5.47
2022-09-30T14:51:10.569Z,5.67
2022-09-30T14:54:02.898Z,6.03
2022-09-30T14:56:54.664Z,4.60
2022-09-30T14:59:43.970Z,4.80
2022-09-30T15:02:32.183Z,4.63
2022-09-30T15:05:19.256Z,5.00
2022-09-30T15:08:17.429Z,4.50
2022-09-30T15:11:04.429Z,6.63
2022-09-30T15:13:59.010Z,5.17
2022-09-30T15:16:55.269Z,4.43
2022-09-30T15:19:43.753Z,6.03
2022-09-30T15:22:31.014Z,3.97
2022-09-30T15:25:21.895Z,4.33
2022-09-30T15:28:12.675Z,5.47
2022-09-30T15:30:59.789Z,5.40
2022-09-30T15:33:46.913Z,6.63
2022-09-30T15:36:36.614Z,4.10
2022-09-30T15:39:49.594Z,4.80
2022-09-30T15:42:45.499Z,4.60
2022-09-30T15:45:39.606Z,5.60
2022-09-30T15:48:26.575Z,5.27
2022-09-30T15:51:44.414Z,5.37
2022-09-30T15:54:38.049Z,4.80
2022-09-30T15:57:44.482Z,5.30
2022-09-30T16:00:37.917Z,4.53
2022-09-30T16:03:29.854Z,5.00
2022-09-30T16:06:28.646Z,5.33
2022-09-30T16:09:21.440Z,4.23
2022-09-30T16:12:18.270Z,3.63
2022-09-30T16:15:15.771Z,5.97
2022-09-30T16:18:02.763Z,4.50
2022-09-30T16:21:00.625Z,4.43
2022-09-30T16:23:47.566Z,8.30
2022-09-30T16:26:34.942Z,6.00
2022-09-30T16:29:23.778Z,5.90
2022-09-30T16:32:10.830Z,5.77
2022-09-30T16:34:58.121Z,5.87
2022-09-30T16:37:45.635Z,7.40
2022-09-30T16:40:39.299Z,7.37
2022-09-30T16:43:26.973Z,6.73
2022-09-30T16:46:14.085Z,6.10
2022-09-30T16:49:14.017Z,4.17
2022-09-30T16:52:01.193Z,8.10
2022-09-30T16:54:48.106Z,5.23
2022-09-30T16:57:35.118Z,7.20
2022-09-30T17:00:22.150Z,5.87
2022-09-30T17:03:14.061Z,7.03
2022-09-30T17:06:01.141Z,6.40
2022-09-30T17:08:52.780Z,5.03
2022-09-30T17:11:40.310Z,4.40
2022-09-30T17:14:27.436Z,6.67
2022-09-30T17:17:14.369Z,5.17
2022-09-30T17:20:01.505Z,6.33
2022-09-30T17:22:48.988Z,7.37
2022-09-30T17:25:41.238Z,6.33
2022-09-30T17:28:28.178Z,7.03
2022-09-30T17:31:15.215Z,7.53
2022-09-30T17:34:08.077Z,7.60
2022-09-30T17:36:56.315Z,6.67
2022-09-30T17:39:43.326Z,9.63
2022-09-30T17:42:48.794Z,7.20
2022-09-30T17:45:37.831Z,8.83
2022-09-30T17:48:25.083Z,7.93
2022-09-30T17:51:12.913Z,7.10
2022-09-30T17:53:59.915Z,7.67
2022-09-30T17:56:47.792Z,6.67
2022-09-30T17:59:35.182Z,7.07
2022-09-30T18:02:22.730Z,8.37
2022-09-30T18:05:10.721Z,7.93
2022-09-30T18:07:57.872Z,8.07
2022-09-30T18:10:45.092Z,8.40
2022-09-30T18:13:32.391Z,8.53
2022-09-30T18:16:19.661Z,8.87
2022-09-30T18:19:07.500Z,10.13
2022-09-30T18:21:54.749Z,9.00
2022-09-30T18:25:00.388Z,9.53
2022-09-30T18:27:49.089Z,9.87
2022-09-30T18:30:40.637Z,10.83
2022-09-30T18:33:28.179Z,9.47
2022-09-30T18:36:15.459Z,10.53
2022-09-30T18:39:02.946Z,9.73
2022-09-30T18:41:49.877Z,11.27
2022-09-30T18:44:41.206Z,9.87
2022-09-30T18:47:28.354Z,9.63
2022-09-30T18:50:17.321Z,8.03
2022-09-30T18:53:09.483Z,10.37
2022-09-30T18:56:00.174Z,10.13
2022-09-30T18:58:49.131Z,8.80
2022-09-30T19:01:36.933Z,9.90
2022-09-30T19:04:24.349Z,9.57
2022-09-30T19:07:11.582Z,10.70
2022-09-30T19:09:58.812Z,9.70
2022-09-30T19:12:45.881Z,10.73
2022-09-30T19:15:33.221Z,12.40
2022-09-30T19:18:21.241Z,10.53
2022-09-30T19:21:11.806Z,10.20
2022-09-30T19:23:59.369Z,9.70
2022-09-30T19:26:48.019Z,9.33
2022-09-30T19:29:34.955Z,10.37
2022-09-30T19:32:21.921Z,12.33
2022-09-30T19:35:11.884Z,10.37
2022-09-30T19:38:02.846Z,10.60
2022-09-30T19:40:57.355Z,8.90
2022-09-30T19:43:49.093Z,10.67
2022-09-30T19:46:36.261Z,11.63
2022-09-30T19:49:24.187Z,9.30
2022-09-30T19:52:18.888Z,9.70
2022-09-30T19:55:16.206Z,11.63
2022-09-30T19:58:04.444Z,9.87
2022-09-30T20:00:56.440Z,11.33
2022-09-30T20:03:44.647Z,10.70
2022-09-30T20:06:35.065Z,9.80
2022-09-30T20:09:24.982Z,9.23
2022-09-30T20:12:12.210Z,10.10
2022-09-30T20:15:17.823Z,7.57
2022-09-30T20:18:05.552Z,8.77
2022-09-30T20:20:53.387Z,9.33
2022-09-30T20:23:41.019Z,8.60
2022-09-30T20:26:28.261Z,9.27
2022-09-30T20:29:15.779Z,9.60
2022-09-30T20:32:02.863Z,7.93
2022-09-30T20:34:49.823Z,6.87
2022-09-30T20:37:37.130Z,5.27
2022-09-30T20:40:24.256Z,7.73
2022-09-30T20:43:11.598Z,5.17
2022-09-30T20:46:03.895Z,4.53
2022-09-30T20:48:51.274Z,4.77
2022-09-30T20:51:38.435Z,4.13
2022-09-30T20:54:25.455Z,4.50
2022-09-30T20:57:12.685Z,3.97
2022-09-30T21:00:00.134Z,5.20
2022-09-30T21:02:49.516Z,4.50
2022-09-30T21:05:37.213Z,5.37
2022-09-30T21:08:24.385Z,3.70
2022-09-30T21:11:12.306Z,5.17
2022-09-30T21:13:59.606Z,4.53
2022-09-30T21:16:46.736Z,8.73
2022-09-30T21:19:34.349Z,3.83
2022-09-30T21:22:21.344Z,5.73
2022-09-30T21:25:09.003Z,4.23
2022-09-30T21:27:56.018Z,4.20
2022-09-30T21:30:43.011Z,4.90
2022-09-30T21:33:29.959Z,4.50
2022-09-30T21:36:17.083Z,6.10
2022-09-30T21:39:04.470Z,5.17
2022-09-30T21:41:51.458Z,3.10
2022-09-30T21:44:38.422Z,6.97
2022-09-30T21:47:25.377Z,5.40
2022-09-30T21:50:12.414Z,5.37
2022-09-30T21:53:00.044Z,3.77
2022-09-30T21:55:51.494Z,5.40
2022-09-30T21:58:38.734Z,5.97
2022-09-30T22:01:25.819Z,5.37
2022-09-30T22:04:13.365Z,3.90
2022-09-30T22:07:00.285Z,4.40
2022-09-30T22:09:47.248Z,5.50
2022-09-30T22:12:34.934Z,4.83
2022-09-30T22:15:21.880Z,3.20
2022-09-30T22:18:12.319Z,5.73
2022-09-30T22:21:11.913Z,3.30
2022-09-30T22:24:00.249Z,5.07
2022-09-30T22:26:47.946Z,3.90
2022-09-30T22:29:35.718Z,3.10
2022-09-30T22:32:22.671Z,5.50
2022-09-30T22:35:29.018Z,3.50
2022-09-30T22:38:16.096Z,4.17
2022-09-30T22:41:03.355Z,7.37
2022-09-30T22:43:50.456Z,4.53
2022-09-30T22:46:38.558Z,4.17
2022-09-30T22:49:26.434Z,3.13
2022-09-30T22:52:14.226Z,3.23
2022-09-30T22:55:01.505Z,5.03
2022-09-30T22:57:48.416Z,2.87
2022-09-30T23:00:35.452Z,5.17
2022-09-30T23:03:23.252Z,4.33
2022-09-30T23:06:10.380Z,4.40
2022-09-30T23:08:57.357Z,4.13
2022-09-30T23:11:46.169Z,3.40
2022-09-30T23:14:33.173Z,4.10
2022-09-30T23:17:20.166Z,3.27
2022-09-30T23:20:07.501Z,3.13
2022-09-30T23:22:54.463Z,2.83
2022-09-30T23:25:41.734Z,3.17
2022-09-30T23:28:29.351Z,3.57
2022-09-30T23:31:17.749Z,2.60
2022-09-30T23:34:04.937Z,3.50
2022-09-30T23:36:51.897Z,3.83
2022-09-30T23:39:39.566Z,3.00
2022-09-30T23:42:26.465Z,2.77
2022-09-30T23:45:13.499Z,3.60
2022-09-30T23:48:00.586Z,3.10
2022-09-30T23:50:49.739Z,2.97
2022-09-30T23:53:36.814Z,2.80
2022-09-30T23:56:24.022Z,3.10
2022-09-30T23:59:13.337Z,3.93
